createdAt,value
2017-12-04T00:04:12.530Z,53.13
2017-12-04T00:10:11.508Z,55.16
2017-12-04T00:12:44.921Z,55.63
2017-12-04T00:18:13.410Z,55.99
2017-12-04T00:20:50.622Z,55.99
2017-12-04T00:26:58.402Z,56.10
2017-12-04T00:30:01.260Z,56.68
2017-12-04T00:33:05.666Z,57.24
2017-12-04T00:36:04.229Z,58.40
2017-12-04T00:39:04.373Z,57.94
2017-12-04T00:42:02.474Z,57.14
2017-12-04T00:44:39.497Z,56.43
2017-12-04T00:47:10.509Z,56.79
2017-12-04T00:49:40.959Z,57.17
2017-12-04T00:52:11.559Z,57.02
2017-12-04T00:54:42.800Z,56.68
2017-12-04T00:57:15.056Z,56.37
2017-12-04T00:59:45.801Z,56.77
2017-12-04T01:02:16.733Z,57.30
2017-12-04T01:04:49.329Z,57.13
2017-12-04T01:07:24.449Z,56.79
2017-12-04T01:09:55.224Z,56.53
2017-12-04T01:12:28.423Z,57.18
2017-12-04T01:15:06.006Z,57.57
2017-12-04T01:17:38.089Z,57.25
2017-12-04T01:20:11.488Z,57.56
2017-12-04T01:22:43.144Z,57.52
2017-12-04T01:25:16.598Z,57.11
2017-12-04T01:27:49.603Z,57.26
2017-12-04T01:30:21.040Z,57.40
2017-12-04T01:32:55.070Z,57.06
2017-12-04T01:35:26.693Z,57.48
2017-12-04T01:38:02.899Z,58.05
2017-12-04T01:40:35.453Z,57.88
2017-12-04T01:43:06.887Z,58.96
2017-12-04T01:45:37.640Z,58.05
2017-12-04T01:48:08.406Z,58.45
2017-12-04T01:50:44.069Z,58.00
2017-12-04T01:53:14.797Z,57.70
2017-12-04T01:55:45.608Z,58.18
2017-12-04T01:58:15.702Z,58.50
2017-12-04T02:00:47.214Z,58.33
2017-12-04T02:03:21.586Z,58.06
2017-12-04T02:05:53.467Z,57.25
2017-12-04T02:08:24.048Z,57.00
2017-12-04T02:10:54.062Z,56.91
2017-12-04T02:13:27.667Z,56.72
2017-12-04T02:15:59.294Z,56.21
2017-12-04T02:18:32.499Z,56.52
2017-12-04T02:21:03.779Z,56.70
2017-12-04T02:23:35.015Z,56.25
2017-12-04T02:26:05.274Z,57.05
2017-12-04T02:28:40.670Z,57.63
2017-12-04T02:31:18.658Z,58.38
2017-12-04T02:33:52.668Z,57.95
2017-12-04T02:36:24.552Z,57.72
2017-12-04T02:38:55.581Z,57.61
2017-12-04T02:41:27.106Z,57.56
2017-12-04T02:43:57.564Z,57.97
2017-12-04T02:46:35.589Z,58.88
2017-12-04T02:49:09.047Z,60.55
2017-12-04T02:51:41.714Z,60.64
2017-12-04T02:54:17.058Z,59.93
2017-12-04T02:56:51.910Z,59.10
2017-12-04T02:59:24.139Z,58.65
2017-12-04T03:02:06.220Z,58.30
2017-12-04T03:04:39.014Z,59.00
2017-12-04T03:07:11.591Z,58.57
2017-12-04T03:09:42.970Z,58.21
2017-12-04T03:12:15.826Z,58.87
2017-12-04T03:14:51.333Z,58.51
2017-12-04T03:17:24.749Z,59.05
2017-12-04T03:19:55.771Z,59.33
2017-12-04T03:22:26.452Z,60.16
2017-12-04T03:25:01.649Z,59.68
2017-12-04T03:27:34.121Z,59.41
2017-12-04T03:30:09.249Z,60.36
2017-12-04T03:32:43.015Z,60.79
2017-12-04T03:35:17.726Z,60.26
2017-12-04T03:37:49.040Z,59.75
2017-12-04T03:40:22.928Z,60.41
2017-12-04T03:42:55.227Z,60.51
2017-12-04T03:45:29.586Z,60.06
2017-12-04T03:48:01.087Z,59.89
2017-12-04T03:50:36.055Z,59.42
2017-12-04T03:55:48.898Z,59.54
2017-12-04T03:58:20.605Z,59.42
2017-12-04T04:01:02.347Z,61.02
2017-12-04T04:03:41.095Z,62.27
2017-12-04T04:06:11.589Z,62.19
2017-12-04T04:08:43.012Z,61.05
2017-12-04T04:11:14.102Z,59.34
2017-12-04T04:13:44.630Z,59.08
2017-12-04T04:16:17.464Z,58.79
2017-12-04T04:18:50.314Z,59.53
2017-12-04T04:21:26.738Z,59.66
2017-12-04T04:24:14.619Z,59.36
2017-12-04T04:26:45.471Z,59.79
2017-12-04T04:29:17.445Z,59.45
2017-12-04T04:31:48.439Z,59.13
2017-12-04T04:34:19.641Z,58.23
2017-12-04T04:36:49.325Z,58.65
2017-12-04T04:39:20.434Z,58.90
2017-12-04T04:42:01.418Z,59.69
2017-12-04T04:44:31.874Z,59.81
2017-12-04T04:47:02.063Z,59.36
2017-12-04T04:49:48.003Z,59.07
2017-12-04T04:58:13.668Z,60.28
2017-12-04T05:00:43.861Z,59.50
2017-12-04T05:03:18.578Z,58.87
2017-12-04T05:05:49.271Z,57.48
2017-12-04T05:08:20.390Z,57.28
2017-12-04T05:10:51.422Z,57.51
2017-12-04T05:13:29.749Z,57.73
2017-12-04T05:16:22.050Z,59.39
2017-12-04T05:18:57.021Z,61.34
2017-12-04T05:21:41.401Z,60.94
2017-12-04T05:24:13.604Z,60.28
2017-12-04T05:26:44.921Z,60.60
2017-12-04T05:29:14.831Z,60.58
2017-12-04T05:31:45.991Z,59.75
2017-12-04T05:34:16.835Z,59.51
2017-12-04T05:36:47.990Z,59.85
2017-12-04T05:39:18.612Z,60.28
2017-12-04T05:41:48.879Z,60.84
2017-12-04T05:44:19.591Z,60.74
2017-12-04T05:46:51.893Z,59.43
2017-12-04T05:49:52.741Z,59.15
2017-12-04T05:52:23.502Z,58.91
2017-12-04T05:54:53.890Z,58.71
2017-12-04T05:57:25.772Z,58.59
2017-12-04T05:59:55.374Z,58.23
2017-12-04T06:02:26.522Z,58.03
2017-12-04T06:04:57.450Z,57.63
2017-12-04T06:07:29.480Z,58.23
2017-12-04T06:10:01.361Z,59.09
2017-12-04T06:12:32.560Z,60.56
2017-12-04T06:15:03.415Z,60.87
2017-12-04T06:17:33.277Z,59.91
2017-12-04T06:20:03.984Z,60.10
2017-12-04T06:22:35.952Z,60.41
2017-12-04T06:25:15.997Z,60.19
2017-12-04T06:27:46.034Z,60.50
2017-12-04T06:30:16.752Z,60.35
2017-12-04T06:33:02.229Z,59.91
2017-12-04T06:35:32.672Z,59.09
2017-12-04T06:38:03.565Z,59.41
2017-12-04T06:40:34.643Z,59.40
2017-12-04T06:43:04.267Z,58.63
2017-12-04T06:45:34.953Z,58.44
2017-12-04T06:48:06.037Z,58.13
2017-12-04T06:50:35.920Z,58.40
2017-12-04T06:53:07.287Z,58.41
2017-12-04T06:55:37.520Z,57.96
2017-12-04T06:58:09.267Z,58.52
2017-12-04T07:00:39.604Z,58.20
2017-12-04T07:03:09.334Z,57.92
2017-12-04T07:05:40.494Z,57.55
2017-12-04T07:08:10.935Z,57.25
2017-12-04T07:10:41.363Z,58.42
2017-12-04T07:13:11.408Z,58.33
2017-12-04T07:15:42.526Z,58.60
2017-12-04T07:18:14.521Z,58.14
2017-12-04T07:20:44.460Z,58.41
2017-12-04T07:23:14.600Z,58.40
2017-12-04T07:25:44.391Z,58.91
2017-12-04T07:28:14.656Z,58.77
2017-12-04T07:30:47.278Z,58.78
2017-12-04T07:33:17.550Z,57.87
2017-12-04T07:35:47.627Z,57.37
2017-12-04T07:38:21.562Z,56.78
2017-12-04T07:40:55.431Z,56.28
2017-12-04T07:43:35.338Z,56.67
2017-12-04T07:46:07.597Z,56.71
2017-12-04T07:48:42.126Z,57.02
2017-12-04T07:51:14.069Z,57.31
2017-12-04T07:53:45.290Z,58.04
2017-12-04T07:56:14.783Z,57.06
2017-12-04T07:58:45.815Z,56.41
2017-12-04T08:01:16.908Z,56.51
2017-12-04T08:03:46.603Z,55.45
2017-12-04T08:06:20.871Z,55.65
2017-12-04T08:08:52.298Z,55.19
2017-12-04T08:11:23.807Z,55.48
2017-12-04T08:13:55.273Z,57.15
2017-12-04T08:16:26.446Z,58.49
2017-12-04T08:18:56.701Z,58.35
2017-12-04T08:21:27.936Z,57.96
2017-12-04T08:24:10.280Z,58.32
2017-12-04T08:26:44.524Z,58.13
2017-12-04T08:29:14.720Z,56.88
2017-12-04T08:31:51.722Z,55.85
2017-12-04T08:34:25.269Z,55.34
2017-12-04T08:36:56.524Z,54.96
2017-12-04T08:39:28.889Z,55.57
2017-12-04T08:41:58.980Z,55.46
2017-12-04T08:44:29.840Z,55.22
2017-12-04T08:47:02.090Z,54.62
2017-12-04T08:49:32.524Z,54.65
2017-12-04T08:52:03.891Z,54.42
2017-12-04T08:54:34.247Z,54.36
2017-12-04T08:57:04.663Z,53.91
2017-12-04T08:59:35.971Z,54.04
2017-12-04T09:02:06.321Z,55.30
2017-12-04T09:04:39.785Z,55.41
2017-12-04T09:07:06.716Z,55.97
2017-12-04T09:09:36.412Z,55.01
2017-12-04T09:12:06.680Z,54.55
2017-12-04T09:14:36.739Z,55.48
2017-12-04T09:17:08.707Z,54.99
2017-12-04T09:19:38.654Z,54.51
2017-12-04T09:22:09.313Z,54.36
2017-12-04T09:24:39.642Z,54.58
2017-12-04T09:27:10.691Z,55.06
2017-12-04T09:29:43.583Z,54.59
2017-12-04T09:32:14.720Z,54.31
2017-12-04T09:34:56.582Z,53.90
2017-12-04T09:37:29.486Z,54.09
2017-12-04T09:40:00.964Z,52.96
2017-12-04T09:42:33.791Z,53.04
2017-12-04T09:45:03.470Z,52.79
2017-12-04T09:47:36.722Z,52.81
2017-12-04T09:50:08.648Z,53.14
2017-12-04T09:52:48.320Z,53.06
2017-12-04T09:55:21.491Z,52.44
2017-12-04T09:57:52.636Z,53.02
2017-12-04T10:00:23.313Z,52.04
2017-12-04T10:02:53.252Z,52.12
2017-12-04T10:05:24.691Z,52.70
2017-12-04T10:07:54.801Z,53.49
2017-12-04T10:10:25.622Z,53.56
2017-12-04T10:12:55.670Z,53.37
2017-12-04T10:15:26.745Z,52.86
2017-12-04T10:18:02.932Z,51.88
2017-12-04T10:20:44.474Z,52.33
2017-12-04T10:23:24.451Z,52.01
2017-12-04T10:25:56.161Z,52.03
2017-12-04T10:28:26.488Z,51.52
2017-12-04T10:30:57.306Z,50.78
2017-12-04T10:33:29.217Z,50.85
2017-12-04T10:35:59.951Z,51.48
2017-12-04T10:38:30.974Z,51.13
2017-12-04T10:41:02.741Z,50.43
2017-12-04T10:43:33.252Z,49.96
2017-12-04T10:46:03.179Z,51.22
2017-12-04T10:48:33.939Z,51.03
2017-12-04T10:51:06.238Z,50.58
2017-12-04T10:53:40.890Z,50.49
2017-12-04T10:56:18.053Z,50.12
2017-12-04T10:58:49.940Z,50.30
2017-12-04T11:01:24.951Z,50.75
2017-12-04T11:03:56.876Z,50.73
2017-12-04T11:06:27.653Z,50.75
2017-12-04T11:08:58.678Z,50.90
2017-12-04T11:11:31.162Z,51.09
2017-12-04T11:14:01.864Z,50.67
2017-12-04T11:16:31.461Z,52.01
2017-12-04T11:19:02.148Z,51.29
2017-12-04T11:21:31.988Z,50.43
2017-12-04T11:24:12.299Z,51.54
2017-12-04T11:26:46.987Z,51.12
2017-12-04T11:29:16.581Z,49.67
2017-12-04T11:31:46.601Z,49.87
2017-12-04T11:34:16.660Z,49.64
2017-12-04T11:36:47.577Z,50.56
2017-12-04T11:39:19.278Z,50.04
2017-12-04T11:45:41.867Z,51.51
2017-12-04T11:48:14.318Z,50.60
2017-12-04T11:50:46.420Z,50.32
2017-12-04T11:53:16.952Z,49.96
2017-12-04T11:55:46.709Z,50.18
2017-12-04T11:58:16.429Z,49.77
2017-12-04T12:00:47.209Z,49.81
2017-12-04T12:03:18.261Z,50.01
2017-12-04T12:05:50.358Z,50.48
2017-12-04T12:08:24.928Z,50.74
2017-12-04T12:10:54.907Z,50.06
2017-12-04T12:13:25.464Z,51.14
2017-12-04T12:15:55.490Z,51.41
2017-12-04T12:18:26.861Z,51.79
2017-12-04T12:20:56.472Z,52.08
2017-12-04T12:23:28.851Z,50.78
2017-12-04T12:26:00.510Z,51.49
2017-12-04T12:28:30.896Z,52.27
2017-12-04T12:31:02.680Z,51.60
2017-12-04T12:33:33.908Z,51.37
2017-12-04T12:36:04.562Z,51.72
2017-12-04T12:38:34.429Z,51.57
2017-12-04T12:41:04.640Z,52.13
2017-12-04T12:43:35.296Z,52.67
2017-12-04T12:46:08.689Z,52.52
2017-12-04T12:48:38.379Z,53.22
2017-12-04T12:51:09.494Z,53.24
2017-12-04T12:53:40.347Z,52.00
2017-12-04T12:56:11.582Z,51.51
2017-12-04T12:58:44.968Z,50.30
2017-12-04T13:01:14.579Z,51.20
2017-12-04T13:03:45.628Z,50.51
2017-12-04T13:06:18.239Z,51.04
2017-12-04T13:08:50.980Z,50.03
2017-12-04T13:11:23.827Z,50.39
2017-12-04T13:13:53.863Z,51.07
2017-12-04T13:16:24.653Z,51.46
2017-12-04T13:18:54.377Z,51.77
2017-12-04T13:21:25.192Z,51.90
2017-12-04T13:23:54.940Z,51.33
2017-12-04T13:26:26.390Z,51.36
2017-12-04T13:28:56.808Z,51.15
2017-12-04T13:31:27.359Z,51.22
2017-12-04T13:34:14.675Z,51.13
2017-12-04T13:36:44.870Z,51.21
2017-12-04T13:39:14.699Z,50.87
2017-12-04T13:41:53.791Z,50.56
2017-12-04T13:44:23.361Z,50.88
2017-12-04T13:46:53.469Z,50.32
2017-12-04T13:49:25.321Z,51.21
2017-12-04T13:51:55.680Z,49.95
2017-12-04T13:57:02.865Z,49.51
2017-12-04T13:59:35.254Z,49.39
2017-12-04T14:02:05.186Z,49.49
2017-12-04T14:04:39.429Z,49.67
2017-12-04T14:07:10.157Z,50.57
2017-12-04T14:09:42.943Z,50.43
2017-12-04T14:12:14.687Z,50.87
2017-12-04T14:14:47.273Z,51.29
2017-12-04T14:17:16.637Z,50.79
2017-12-04T14:19:47.772Z,50.64
2017-12-04T14:22:19.264Z,50.03
2017-12-04T14:24:50.947Z,50.08
2017-12-04T14:27:20.828Z,50.78
2017-12-04T14:29:50.832Z,52.02
2017-12-04T14:32:22.771Z,52.04
2017-12-04T14:34:52.538Z,51.15
2017-12-04T14:37:22.479Z,51.09
2017-12-04T14:39:53.538Z,51.29
2017-12-04T14:42:23.313Z,52.07
2017-12-04T14:44:52.990Z,52.71
2017-12-04T14:47:29.442Z,52.62
2017-12-04T14:49:59.572Z,52.58
2017-12-04T14:52:29.870Z,52.99
2017-12-04T14:54:59.482Z,53.34
2017-12-04T14:57:30.538Z,53.30
2017-12-04T15:00:01.774Z,53.32
2017-12-04T15:02:32.564Z,53.22
2017-12-04T15:05:11.836Z,53.43
2017-12-04T15:07:42.307Z,53.85
2017-12-04T15:10:12.741Z,54.07
2017-12-04T15:12:46.337Z,54.14
2017-12-04T15:15:16.513Z,53.94
2017-12-04T15:17:46.655Z,53.63
2017-12-04T15:20:16.501Z,53.72
2017-12-04T15:22:47.186Z,53.85
2017-12-04T15:25:20.471Z,54.11
2017-12-04T15:27:51.463Z,54.20
2017-12-04T15:30:24.656Z,54.36
2017-12-04T15:32:54.504Z,54.83
2017-12-04T15:35:24.532Z,56.33
2017-12-04T15:37:55.300Z,55.68
2017-12-04T15:40:25.419Z,55.31
2017-12-04T15:42:55.365Z,55.28
2017-12-04T15:45:25.299Z,55.72
2017-12-04T15:47:55.401Z,56.91
2017-12-04T15:50:25.874Z,57.58
2017-12-04T15:52:56.673Z,57.37
2017-12-04T15:55:26.297Z,57.03
2017-12-04T15:57:56.611Z,56.34
2017-12-04T16:00:26.390Z,56.25
2017-12-04T16:02:56.373Z,56.23
2017-12-04T16:05:28.558Z,55.98
2017-12-04T16:08:00.550Z,56.18
2017-12-04T16:10:30.400Z,55.83
2017-12-04T16:13:00.347Z,55.95
2017-12-04T16:15:30.982Z,56.08
2017-12-04T16:18:01.336Z,55.88
2017-12-04T16:20:31.428Z,55.68
2017-12-04T16:23:01.581Z,56.64
2017-12-04T16:25:34.563Z,56.38
2017-12-04T16:28:04.711Z,56.47
2017-12-04T16:30:34.882Z,56.54
2017-12-04T16:33:04.589Z,56.23
2017-12-04T16:35:35.207Z,56.28
2017-12-04T16:38:04.825Z,56.67
2017-12-04T16:40:36.019Z,57.63
2017-12-04T16:43:07.394Z,57.03
2017-12-04T16:45:37.308Z,56.69
2017-12-04T16:48:08.908Z,56.92
2017-12-04T16:53:18.510Z,56.45
2017-12-04T16:55:48.118Z,56.07
2017-12-04T16:58:18.683Z,56.19
2017-12-04T17:00:48.132Z,56.02
2017-12-04T17:03:20.090Z,56.42
2017-12-04T17:05:49.919Z,57.23
2017-12-04T17:08:20.549Z,57.12
2017-12-04T17:10:51.957Z,57.34
2017-12-04T17:13:23.319Z,57.93
2017-12-04T17:15:53.464Z,57.80
2017-12-04T17:18:26.856Z,57.64
2017-12-04T17:20:57.228Z,57.39
2017-12-04T17:23:27.856Z,57.16
2017-12-04T17:25:59.977Z,57.25
2017-12-04T17:28:30.397Z,57.23
2017-12-04T17:31:02.191Z,57.23
2017-12-04T17:33:32.370Z,57.51
2017-12-04T17:36:02.203Z,57.06
2017-12-04T17:38:31.863Z,56.87
2017-12-04T17:41:02.312Z,56.66
2017-12-04T17:43:32.710Z,57.06
2017-12-04T17:46:03.402Z,57.20
2017-12-04T17:48:33.362Z,57.17
2017-12-04T17:51:04.280Z,56.86
2017-12-04T17:53:34.371Z,57.81
2017-12-04T17:56:05.167Z,57.50
2017-12-04T17:58:37.870Z,56.99
2017-12-04T18:01:09.152Z,56.84
2017-12-04T18:03:40.158Z,57.47
2017-12-04T18:06:10.921Z,57.52
2017-12-04T18:08:41.472Z,57.58
2017-12-04T18:11:11.227Z,57.51
2017-12-04T18:13:42.478Z,57.49
2017-12-04T18:16:12.351Z,58.47
2017-12-04T18:18:45.976Z,58.43
2017-12-04T18:21:16.047Z,59.66
2017-12-04T18:23:46.381Z,61.03
2017-12-04T18:26:17.189Z,61.37
2017-12-04T18:28:46.575Z,60.38
2017-12-04T18:31:17.152Z,59.71
2017-12-04T18:33:47.206Z,59.12
2017-12-04T18:36:16.672Z,58.90
2017-12-04T18:38:51.707Z,58.38
2017-12-04T18:41:23.211Z,58.68
2017-12-04T18:43:54.430Z,58.38
2017-12-04T18:46:24.175Z,57.98
2017-12-04T18:48:54.461Z,59.79
2017-12-04T18:51:26.189Z,60.74
2017-12-04T18:53:56.377Z,60.60
2017-12-04T18:56:27.910Z,59.82
2017-12-04T18:58:58.701Z,59.31
2017-12-04T19:01:31.379Z,59.07
2017-12-04T19:04:03.879Z,58.56
2017-12-04T19:06:34.930Z,58.02
2017-12-04T19:09:06.222Z,57.82
2017-12-04T19:11:37.088Z,57.63
2017-12-04T19:14:08.147Z,58.99
2017-12-04T19:16:40.816Z,59.56
2017-12-04T19:19:11.439Z,60.10
2017-12-04T19:21:42.192Z,59.96
2017-12-04T19:24:13.444Z,59.29
2017-12-04T19:26:43.367Z,59.14
2017-12-04T19:29:13.848Z,58.78
2017-12-04T19:31:44.612Z,58.83
2017-12-04T19:34:14.517Z,59.34
2017-12-04T19:36:44.260Z,59.45
2017-12-04T19:39:14.518Z,59.41
2017-12-04T19:41:44.538Z,59.13
2017-12-04T19:44:19.846Z,59.01
2017-12-04T19:46:50.776Z,59.08
2017-12-04T19:49:30.338Z,59.15
2017-12-04T19:52:00.513Z,60.29
2017-12-04T19:54:31.778Z,60.47
2017-12-04T19:57:02.627Z,60.69
2017-12-04T19:59:32.086Z,62.00
2017-12-04T20:02:02.059Z,61.52
2017-12-04T20:04:32.626Z,60.96
2017-12-04T20:07:03.723Z,60.41
2017-12-04T20:09:36.107Z,59.73
2017-12-04T20:12:05.823Z,59.10
2017-12-04T20:14:35.915Z,58.99
2017-12-04T20:17:06.647Z,59.89
2017-12-04T20:19:36.251Z,59.36
2017-12-04T20:22:06.660Z,59.26
2017-12-04T20:24:38.315Z,59.62
2017-12-04T20:27:08.619Z,59.96
2017-12-04T20:29:41.708Z,60.46
2017-12-04T20:32:11.393Z,59.85
2017-12-04T20:34:43.401Z,60.12
2017-12-04T20:37:20.837Z,59.90
2017-12-04T20:39:51.385Z,59.68
2017-12-04T20:42:22.545Z,59.48
2017-12-04T20:44:54.528Z,60.64
2017-12-04T20:47:24.417Z,60.69
2017-12-04T20:50:03.159Z,60.41
2017-12-04T20:52:35.985Z,59.96
2017-12-04T20:55:06.307Z,60.35
2017-12-04T20:57:37.906Z,60.49
2017-12-04T21:00:13.885Z,60.77
2017-12-04T21:02:44.404Z,60.94
2017-12-04T21:05:14.361Z,60.81
2017-12-04T21:07:51.688Z,61.12
2017-12-04T21:10:39.175Z,62.42
2017-12-04T21:13:26.323Z,62.36
2017-12-04T21:16:28.758Z,61.35
2017-12-04T21:18:59.139Z,60.92
2017-12-04T21:21:30.887Z,61.14
2017-12-04T21:24:02.726Z,60.95
2017-12-04T21:26:33.461Z,60.92
2017-12-04T21:29:04.299Z,62.05
2017-12-04T21:31:35.204Z,62.37
2017-12-04T21:34:06.425Z,61.99
2017-12-04T21:36:36.866Z,61.16
2017-12-04T21:39:06.683Z,60.48
2017-12-04T21:41:38.244Z,62.60
2017-12-04T21:44:10.413Z,62.40
2017-12-04T21:46:43.434Z,62.40
2017-12-04T21:49:14.876Z,63.94
2017-12-04T21:51:48.433Z,63.65
2017-12-04T21:54:19.721Z,62.21
2017-12-04T21:56:52.592Z,62.05
2017-12-04T21:59:24.157Z,61.64
2017-12-04T22:01:59.209Z,61.56
2017-12-04T22:04:35.646Z,60.83
2017-12-04T22:07:07.656Z,60.61
2017-12-04T22:09:38.193Z,60.40
2017-12-04T22:12:09.113Z,60.48
2017-12-04T22:14:41.459Z,60.55
2017-12-04T22:17:11.411Z,60.40
2017-12-04T22:19:42.525Z,60.48
2017-12-04T22:22:13.242Z,60.27
2017-12-04T22:24:43.067Z,60.41
2017-12-04T22:27:14.526Z,60.26
2017-12-04T22:29:44.528Z,60.87
2017-12-04T22:32:17.645Z,61.08
2017-12-04T22:34:48.231Z,61.09
2017-12-04T22:37:19.679Z,60.93
2017-12-04T22:39:50.423Z,60.54
2017-12-04T22:42:21.690Z,60.99
2017-12-04T22:44:52.172Z,61.34
2017-12-04T22:47:22.629Z,61.10
2017-12-04T22:49:56.866Z,60.71
2017-12-04T22:52:27.430Z,60.71
2017-12-04T22:54:58.675Z,60.50
2017-12-04T22:57:28.642Z,60.27
2017-12-04T22:59:58.222Z,60.32
2017-12-04T23:02:29.567Z,60.83
2017-12-04T23:05:00.419Z,60.79
2017-12-04T23:07:36.675Z,60.65
2017-12-04T23:10:06.433Z,61.24
2017-12-04T23:12:40.475Z,61.46
2017-12-04T23:15:15.541Z,62.11
2017-12-04T23:17:46.002Z,62.16
2017-12-04T23:20:17.544Z,61.94
2017-12-04T23:22:48.463Z,61.74
2017-12-04T23:25:21.602Z,61.06
2017-12-04T23:27:53.422Z,60.59
2017-12-04T23:30:24.552Z,60.52
2017-12-04T23:32:55.584Z,60.99
2017-12-04T23:35:26.702Z,61.30
2017-12-04T23:37:57.624Z,62.08
2017-12-04T23:40:29.024Z,62.23
2017-12-04T23:43:05.374Z,61.91
2017-12-04T23:45:38.395Z,61.53
2017-12-04T23:48:12.043Z,61.47
2017-12-04T23:50:44.810Z,61.50
2017-12-04T23:53:15.301Z,61.64
2017-12-04T23:55:46.425Z,61.84
2017-12-04T23:58:17.614Z,62.23
